sensor_id;sensor_type;location;lat;lon;timestamp;P1;durP1;ratioP1;P2;durP2;ratioP2
9844;SDS011;4961;50.782;6.080;2022-07-22T00:02:00;11.30;;;5.33;;
9844;SDS011;4961;50.782;6.080;2022-07-22T00:04:29;8.77;;;6.07;;
9844;SDS011;4961;50.782;6.080;2022-07-22T00:06:57;13.17;;;6.23;;
9844;SDS011;4961;50.782;6.080;2022-07-22T00:09:25;8.50;;;5.73;;
9844;SDS011;4961;50.782;6.080;2022-07-22T00:11:54;10.70;;;6.13;;
9844;SDS011;4961;50.782;6.080;2022-07-22T00:14:22;10.32;;;6.22;;
9844;SDS011;4961;50.782;6.080;2022-07-22T00:16:52;12.83;;;6.87;;
9844;SDS011;4961;50.782;6.080;2022-07-22T00:19:20;10.27;;;6.60;;
9844;SDS011;4961;50.782;6.080;2022-07-22T00:21:50;12.33;;;6.60;;
9844;SDS011;4961;50.782;6.080;2022-07-22T00:24:19;8.47;;;6.30;;
9844;SDS011;4961;50.782;6.080;2022-07-22T00:26:48;8.67;;;5.40;;
9844;SDS011;4961;50.782;6.080;2022-07-22T00:29:16;12.27;;;5.93;;
9844;SDS011;4961;50.782;6.080;2022-07-22T00:31:44;15.13;;;7.00;;
9844;SDS011;4961;50.782;6.080;2022-07-22T00:34:14;9.63;;;4.97;;
9844;SDS011;4961;50.782;6.080;2022-07-22T00:36:42;11.43;;;5.33;;
9844;SDS011;4961;50.782;6.080;2022-07-22T00:39:10;10.90;;;6.77;;
9844;SDS011;4961;50.782;6.080;2022-07-22T00:41:39;8.90;;;5.40;;
9844;SDS011;4961;50.782;6.080;2022-07-22T00:44:08;10.17;;;5.73;;
9844;SDS011;4961;50.782;6.080;2022-07-22T00:46:36;6.90;;;4.43;;
9844;SDS011;4961;50.782;6.080;2022-07-22T00:49:06;9.60;;;4.37;;
9844;SDS011;4961;50.782;6.080;2022-07-22T00:51:36;11.47;;;5.03;;
9844;SDS011;4961;50.782;6.080;2022-07-22T00:54:05;12.33;;;5.03;;
9844;SDS011;4961;50.782;6.080;2022-07-22T00:56:35;10.00;;;5.47;;
9844;SDS011;4961;50.782;6.080;2022-07-22T00:59:05;11.17;;;5.57;;
9844;SDS011;4961;50.782;6.080;2022-07-22T01:01:35;8.57;;;5.07;;
9844;SDS011;4961;50.782;6.080;2022-07-22T01:04:03;9.80;;;4.87;;
9844;SDS011;4961;50.782;6.080;2022-07-22T01:06:32;9.87;;;5.20;;
9844;SDS011;4961;50.782;6.080;2022-07-22T01:09:02;13.77;;;5.30;;
9844;SDS011;4961;50.782;6.080;2022-07-22T01:11:30;7.87;;;4.30;;
9844;SDS011;4961;50.782;6.080;2022-07-22T01:13:59;8.73;;;4.63;;
9844;SDS011;4961;50.782;6.080;2022-07-22T01:16:29;13.23;;;4.60;;
9844;SDS011;4961;50.782;6.080;2022-07-22T01:18:57;9.90;;;4.70;;
9844;SDS011;4961;50.782;6.080;2022-07-22T01:21:28;11.13;;;5.10;;
9844;SDS011;4961;50.782;6.080;2022-07-22T01:23:56;7.17;;;4.97;;
9844;SDS011;4961;50.782;6.080;2022-07-22T01:26:24;12.43;;;5.10;;
9844;SDS011;4961;50.782;6.080;2022-07-22T01:28:52;10.53;;;4.07;;
9844;SDS011;4961;50.782;6.080;2022-07-22T01:31:21;12.40;;;4.60;;
9844;SDS011;4961;50.782;6.080;2022-07-22T01:33:49;9.37;;;4.70;;
9844;SDS011;4961;50.782;6.080;2022-07-22T01:36:18;5.63;;;3.53;;
9844;SDS011;4961;50.782;6.080;2022-07-22T01:38:47;5.87;;;3.20;;
9844;SDS011;4961;50.782;6.080;2022-07-22T01:41:16;5.87;;;3.17;;
9844;SDS011;4961;50.782;6.080;2022-07-22T01:43:44;7.03;;;3.63;;
9844;SDS011;4961;50.782;6.080;2022-07-22T01:46:12;9.17;;;3.53;;
9844;SDS011;4961;50.782;6.080;2022-07-22T01:48:40;8.20;;;3.33;;
9844;SDS011;4961;50.782;6.080;2022-07-22T01:51:09;5.17;;;3.63;;
9844;SDS011;4961;50.782;6.080;2022-07-22T01:53:37;8.57;;;4.03;;
9844;SDS011;4961;50.782;6.080;2022-07-22T01:56:07;9.20;;;4.53;;
9844;SDS011;4961;50.782;6.080;2022-07-22T01:58:35;5.90;;;3.80;;
9844;SDS011;4961;50.782;6.080;2022-07-22T02:01:06;8.07;;;4.07;;
9844;SDS011;4961;50.782;6.080;2022-07-22T02:03:34;7.20;;;4.13;;
9844;SDS011;4961;50.782;6.080;2022-07-22T02:06:03;7.87;;;4.80;;
9844;SDS011;4961;50.782;6.080;2022-07-22T02:08:31;6.70;;;4.70;;
9844;SDS011;4961;50.782;6.080;2022-07-22T02:11:00;9.53;;;5.17;;
9844;SDS011;4961;50.782;6.080;2022-07-22T02:13:29;10.33;;;5.00;;
9844;SDS011;4961;50.782;6.080;2022-07-22T02:15:57;11.97;;;5.03;;
9844;SDS011;4961;50.782;6.080;2022-07-22T02:18:26;9.87;;;4.67;;
9844;SDS011;4961;50.782;6.080;2022-07-22T02:20:54;9.53;;;4.63;;
9844;SDS011;4961;50.782;6.080;2022-07-22T02:23:22;8.80;;;4.47;;
9844;SDS011;4961;50.782;6.080;2022-07-22T02:25:50;7.83;;;4.50;;
9844;SDS011;4961;50.782;6.080;2022-07-22T02:28:19;11.90;;;5.10;;
9844;SDS011;4961;50.782;6.080;2022-07-22T02:30:48;12.43;;;5.50;;
9844;SDS011;4961;50.782;6.080;2022-07-22T02:33:16;11.30;;;5.33;;
9844;SDS011;4961;50.782;6.080;2022-07-22T02:35:45;8.70;;;5.20;;
9844;SDS011;4961;50.782;6.080;2022-07-22T02:38:13;10.87;;;5.27;;
9844;SDS011;4961;50.782;6.080;2022-07-22T02:40:41;10.57;;;4.83;;
9844;SDS011;4961;50.782;6.080;2022-07-22T02:43:09;9.80;;;4.77;;
9844;SDS011;4961;50.782;6.080;2022-07-22T02:45:38;7.27;;;4.77;;
9844;SDS011;4961;50.782;6.080;2022-07-22T02:48:07;7.53;;;4.20;;
9844;SDS011;4961;50.782;6.080;2022-07-22T02:50:37;13.33;;;4.67;;
9844;SDS011;4961;50.782;6.080;2022-07-22T02:53:05;10.60;;;4.53;;
9844;SDS011;4961;50.782;6.080;2022-07-22T02:55:33;5.63;;;3.43;;
9844;SDS011;4961;50.782;6.080;2022-07-22T02:58:03;4.80;;;3.07;;
9844;SDS011;4961;50.782;6.080;2022-07-22T03:00:32;4.83;;;2.77;;
9844;SDS011;4961;50.782;6.080;2022-07-22T03:03:00;5.10;;;2.67;;
9844;SDS011;4961;50.782;6.080;2022-07-22T03:05:30;3.90;;;2.30;;
9844;SDS011;4961;50.782;6.080;2022-07-22T03:07:58;4.30;;;2.37;;
9844;SDS011;4961;50.782;6.080;2022-07-22T03:10:26;3.83;;;2.00;;
9844;SDS011;4961;50.782;6.080;2022-07-22T03:12:55;2.73;;;2.13;;
9844;SDS011;4961;50.782;6.080;2022-07-22T03:15:23;7.23;;;1.80;;
9844;SDS011;4961;50.782;6.080;2022-07-22T03:17:51;8.23;;;2.20;;
9844;SDS011;4961;50.782;6.080;2022-07-22T03:20:19;6.07;;;1.93;;
9844;SDS011;4961;50.782;6.080;2022-07-22T03:22:49;4.90;;;1.80;;
9844;SDS011;4961;50.782;6.080;2022-07-22T03:25:18;4.93;;;1.77;;
9844;SDS011;4961;50.782;6.080;2022-07-22T03:27:46;3.87;;;2.57;;
9844;SDS011;4961;50.782;6.080;2022-07-22T03:30:14;2.93;;;1.50;;
9844;SDS011;4961;50.782;6.080;2022-07-22T03:32:42;1.93;;;1.33;;
9844;SDS011;4961;50.782;6.080;2022-07-22T03:35:16;5.20;;;2.20;;
9844;SDS011;4961;50.782;6.080;2022-07-22T03:37:45;4.67;;;1.33;;
9844;SDS011;4961;50.782;6.080;2022-07-22T03:40:14;2.67;;;1.80;;
9844;SDS011;4961;50.782;6.080;2022-07-22T03:42:43;1.70;;;1.60;;
9844;SDS011;4961;50.782;6.080;2022-07-22T03:45:12;1.70;;;1.60;;
9844;SDS011;4961;50.782;6.080;2022-07-22T03:47:40;2.27;;;1.60;;
9844;SDS011;4961;50.782;6.080;2022-07-22T03:50:09;2.37;;;1.33;;
9844;SDS011;4961;50.782;6.080;2022-07-22T03:52:37;2.83;;;1.37;;
9844;SDS011;4961;50.782;6.080;2022-07-22T03:55:06;3.90;;;2.20;;
9844;SDS011;4961;50.782;6.080;2022-07-22T03:57:36;3.47;;;1.70;;
9844;SDS011;4961;50.782;6.080;2022-07-22T04:00:04;3.37;;;3.07;;
9844;SDS011;4961;50.782;6.080;2022-07-22T04:02:34;2.80;;;2.60;;
9844;SDS011;4961;50.782;6.080;2022-07-22T04:05:02;3.40;;;3.10;;
9844;SDS011;4961;50.782;6.080;2022-07-22T04:07:31;3.47;;;3.17;;
9844;SDS011;4961;50.782;6.080;2022-07-22T04:10:00;4.00;;;3.63;;
9844;SDS011;4961;50.782;6.080;2022-07-22T04:12:32;4.43;;;3.67;;
9844;SDS011;4961;50.782;6.080;2022-07-22T04:15:04;3.80;;;3.10;;
9844;SDS011;4961;50.782;6.080;2022-07-22T04:17:34;5.60;;;3.67;;
9844;SDS011;4961;50.782;6.080;2022-07-22T04:20:02;4.27;;;3.90;;
9844;SDS011;4961;50.782;6.080;2022-07-22T04:22:32;4.37;;;3.23;;
9844;SDS011;4961;50.782;6.080;2022-07-22T04:25:00;5.40;;;3.40;;
9844;SDS011;4961;50.782;6.080;2022-07-22T04:27:28;3.93;;;3.50;;
9844;SDS011;4961;50.782;6.080;2022-07-22T04:29:56;3.27;;;2.93;;
9844;SDS011;4961;50.782;6.080;2022-07-22T04:32:27;4.27;;;3.50;;
9844;SDS011;4961;50.782;6.080;2022-07-22T04:34:55;5.13;;;3.37;;
9844;SDS011;4961;50.782;6.080;2022-07-22T04:37:23;4.03;;;3.30;;
9844;SDS011;4961;50.782;6.080;2022-07-22T04:39:51;3.53;;;2.80;;
9844;SDS011;4961;50.782;6.080;2022-07-22T04:42:20;5.47;;;3.50;;
9844;SDS011;4961;50.782;6.080;2022-07-22T04:44:48;4.57;;;3.10;;
9844;SDS011;4961;50.782;6.080;2022-07-22T04:47:16;5.43;;;3.60;;
9844;SDS011;4961;50.782;6.080;2022-07-22T04:49:46;5.27;;;3.33;;
9844;SDS011;4961;50.782;6.080;2022-07-22T04:52:14;7.97;;;4.70;;
9844;SDS011;4961;50.782;6.080;2022-07-22T04:54:45;7.60;;;3.87;;
9844;SDS011;4961;50.782;6.080;2022-07-22T04:57:14;7.67;;;3.73;;
9844;SDS011;4961;50.782;6.080;2022-07-22T04:59:42;8.73;;;4.70;;
9844;SDS011;4961;50.782;6.080;2022-07-22T05:02:10;9.83;;;6.33;;
9844;SDS011;4961;50.782;6.080;2022-07-22T05:04:39;8.63;;;4.33;;
9844;SDS011;4961;50.782;6.080;2022-07-22T05:07:08;4.83;;;3.50;;
9844;SDS011;4961;50.782;6.080;2022-07-22T05:09:37;7.13;;;3.97;;
9844;SDS011;4961;50.782;6.080;2022-07-22T05:12:06;4.90;;;3.60;;
9844;SDS011;4961;50.782;6.080;2022-07-22T05:14:34;9.60;;;4.73;;
9844;SDS011;4961;50.782;6.080;2022-07-22T05:17:02;7.23;;;4.57;;
9844;SDS011;4961;50.782;6.080;2022-07-22T05:19:31;7.40;;;3.83;;
9844;SDS011;4961;50.782;6.080;2022-07-22T05:21:59;7.60;;;4.37;;
9844;SDS011;4961;50.782;6.080;2022-07-22T05:24:29;4.33;;;4.03;;
9844;SDS011;4961;50.782;6.080;2022-07-22T05:26:57;6.53;;;4.43;;
9844;SDS011;4961;50.782;6.080;2022-07-22T05:29:25;5.43;;;4.37;;
9844;SDS011;4961;50.782;6.080;2022-07-22T05:31:53;9.97;;;4.60;;
9844;SDS011;4961;50.782;6.080;2022-07-22T05:34:22;7.10;;;4.77;;
9844;SDS011;4961;50.782;6.080;2022-07-22T05:36:50;5.10;;;4.40;;
9844;SDS011;4961;50.782;6.080;2022-07-22T05:39:18;9.23;;;4.37;;
9844;SDS011;4961;50.782;6.080;2022-07-22T05:41:48;6.73;;;3.63;;
9844;SDS011;4961;50.782;6.080;2022-07-22T05:44:21;5.93;;;3.13;;
9844;SDS011;4961;50.782;6.080;2022-07-22T05:46:49;6.93;;;3.80;;
9844;SDS011;4961;50.782;6.080;2022-07-22T05:49:18;7.53;;;3.10;;
9844;SDS011;4961;50.782;6.080;2022-07-22T05:51:48;4.43;;;2.43;;
9844;SDS011;4961;50.782;6.080;2022-07-22T05:54:16;3.20;;;1.77;;
9844;SDS011;4961;50.782;6.080;2022-07-22T05:56:44;1.67;;;1.57;;
9844;SDS011;4961;50.782;6.080;2022-07-22T05:59:14;6.37;;;2.00;;
9844;SDS011;4961;50.782;6.080;2022-07-22T06:01:42;2.00;;;1.60;;
9844;SDS011;4961;50.782;6.080;2022-07-22T06:04:11;2.07;;;1.60;;
9844;SDS011;4961;50.782;6.080;2022-07-22T06:06:40;2.17;;;1.70;;
9844;SDS011;4961;50.782;6.080;2022-07-22T06:09:08;2.33;;;1.63;;
9844;SDS011;4961;50.782;6.080;2022-07-22T06:11:36;3.90;;;1.70;;
9844;SDS011;4961;50.782;6.080;2022-07-22T06:14:05;2.43;;;2.00;;
9844;SDS011;4961;50.782;6.080;2022-07-22T06:16:35;2.80;;;1.80;;
9844;SDS011;4961;50.782;6.080;2022-07-22T06:19:04;3.67;;;2.40;;
9844;SDS011;4961;50.782;6.080;2022-07-22T06:21:32;4.07;;;1.77;;
9844;SDS011;4961;50.782;6.080;2022-07-22T06:24:00;3.10;;;1.70;;
9844;SDS011;4961;50.782;6.080;2022-07-22T06:26:29;2.40;;;1.83;;
9844;SDS011;4961;50.782;6.080;2022-07-22T06:28:57;3.23;;;1.77;;
9844;SDS011;4961;50.782;6.080;2022-07-22T06:31:26;2.73;;;2.53;;
9844;SDS011;4961;50.782;6.080;2022-07-22T06:33:56;1.60;;;1.47;;
9844;SDS011;4961;50.782;6.080;2022-07-22T06:36:24;2.70;;;1.80;;
9844;SDS011;4961;50.782;6.080;2022-07-22T06:38:52;3.37;;;2.53;;
9844;SDS011;4961;50.782;6.080;2022-07-22T06:41:21;2.63;;;2.30;;
9844;SDS011;4961;50.782;6.080;2022-07-22T06:43:49;2.53;;;2.33;;
9844;SDS011;4961;50.782;6.080;2022-07-22T06:46:18;3.37;;;1.90;;
9844;SDS011;4961;50.782;6.080;2022-07-22T06:48:46;5.57;;;1.97;;
9844;SDS011;4961;50.782;6.080;2022-07-22T06:51:16;2.30;;;1.87;;
9844;SDS011;4961;50.782;6.080;2022-07-22T06:53:44;5.77;;;2.20;;
9844;SDS011;4961;50.782;6.080;2022-07-22T06:56:14;4.40;;;2.40;;
9844;SDS011;4961;50.782;6.080;2022-07-22T06:58:43;5.73;;;2.43;;
9844;SDS011;4961;50.782;6.080;2022-07-22T07:01:11;3.53;;;1.67;;
9844;SDS011;4961;50.782;6.080;2022-07-22T07:03:39;2.70;;;1.67;;
9844;SDS011;4961;50.782;6.080;2022-07-22T07:06:08;5.60;;;2.33;;
9844;SDS011;4961;50.782;6.080;2022-07-22T07:08:40;2.53;;;1.90;;
9844;SDS011;4961;50.782;6.080;2022-07-22T07:11:08;4.50;;;2.07;;
9844;SDS011;4961;50.782;6.080;2022-07-22T07:13:36;3.00;;;1.60;;
9844;SDS011;4961;50.782;6.080;2022-07-22T07:16:05;2.00;;;1.90;;
9844;SDS011;4961;50.782;6.080;2022-07-22T07:18:34;3.10;;;2.20;;
9844;SDS011;4961;50.782;6.080;2022-07-22T07:21:03;4.50;;;4.10;;
9844;SDS011;4961;50.782;6.080;2022-07-22T07:23:34;6.50;;;5.87;;
9844;SDS011;4961;50.782;6.080;2022-07-22T07:26:03;6.60;;;5.50;;
9844;SDS011;4961;50.782;6.080;2022-07-22T07:28:32;5.97;;;5.47;;
9844;SDS011;4961;50.782;6.080;2022-07-22T07:31:00;6.30;;;5.73;;
9844;SDS011;4961;50.782;6.080;2022-07-22T07:33:29;5.63;;;5.10;;
9844;SDS011;4961;50.782;6.080;2022-07-22T07:35:57;4.47;;;3.67;;
9844;SDS011;4961;50.782;6.080;2022-07-22T07:38:26;7.00;;;4.73;;
9844;SDS011;4961;50.782;6.080;2022-07-22T07:40:54;6.90;;;6.30;;
9844;SDS011;4961;50.782;6.080;2022-07-22T07:43:23;7.50;;;6.80;;
9844;SDS011;4961;50.782;6.080;2022-07-22T07:45:52;8.07;;;7.37;;
9844;SDS011;4961;50.782;6.080;2022-07-22T07:48:20;9.13;;;8.37;;
9844;SDS011;4961;50.782;6.080;2022-07-22T07:50:48;10.13;;;8.00;;
9844;SDS011;4961;50.782;6.080;2022-07-22T07:53:17;8.43;;;7.53;;
9844;SDS011;4961;50.782;6.080;2022-07-22T07:55:45;10.43;;;8.63;;
9844;SDS011;4961;50.782;6.080;2022-07-22T07:58:15;8.50;;;7.70;;
9844;SDS011;4961;50.782;6.080;2022-07-22T08:00:44;10.27;;;9.43;;
9844;SDS011;4961;50.782;6.080;2022-07-22T08:03:13;11.07;;;9.97;;
9844;SDS011;4961;50.782;6.080;2022-07-22T08:05:42;11.97;;;10.77;;
9844;SDS011;4961;50.782;6.080;2022-07-22T08:08:10;12.10;;;11.00;;
9844;SDS011;4961;50.782;6.080;2022-07-22T08:10:40;12.33;;;11.17;;
9844;SDS011;4961;50.782;6.080;2022-07-22T08:13:26;12.30;;;11.20;;
9844;SDS011;4961;50.782;6.080;2022-07-22T08:15:56;12.47;;;11.20;;
9844;SDS011;4961;50.782;6.080;2022-07-22T08:18:25;12.60;;;11.30;;
9844;SDS011;4961;50.782;6.080;2022-07-22T08:20:54;12.67;;;11.13;;
9844;SDS011;4961;50.782;6.080;2022-07-22T08:23:26;14.00;;;12.70;;
9844;SDS011;4961;50.782;6.080;2022-07-22T08:25:54;12.60;;;11.50;;
9844;SDS011;4961;50.782;6.080;2022-07-22T08:28:23;10.83;;;9.70;;
9844;SDS011;4961;50.782;6.080;2022-07-22T08:30:51;11.00;;;9.90;;
9844;SDS011;4961;50.782;6.080;2022-07-22T08:33:21;10.60;;;9.57;;
9844;SDS011;4961;50.782;6.080;2022-07-22T08:35:50;12.00;;;10.90;;
9844;SDS011;4961;50.782;6.080;2022-07-22T08:38:18;13.13;;;10.87;;
9844;SDS011;4961;50.782;6.080;2022-07-22T08:40:46;11.53;;;10.33;;
9844;SDS011;4961;50.782;6.080;2022-07-22T08:43:15;12.47;;;10.97;;
9844;SDS011;4961;50.782;6.080;2022-07-22T08:45:43;11.13;;;9.97;;
9844;SDS011;4961;50.782;6.080;2022-07-22T08:48:13;11.80;;;10.70;;
9844;SDS011;4961;50.782;6.080;2022-07-22T08:50:43;11.73;;;10.63;;
9844;SDS011;4961;50.782;6.080;2022-07-22T08:53:11;12.70;;;11.40;;
9844;SDS011;4961;50.782;6.080;2022-07-22T08:55:41;12.30;;;11.17;;
9844;SDS011;4961;50.782;6.080;2022-07-22T08:58:11;12.13;;;10.30;;
9844;SDS011;4961;50.782;6.080;2022-07-22T09:00:40;11.27;;;10.17;;
9844;SDS011;4961;50.782;6.080;2022-07-22T09:03:18;12.30;;;11.17;;
9844;SDS011;4961;50.782;6.080;2022-07-22T09:05:50;10.90;;;10.00;;
9844;SDS011;4961;50.782;6.080;2022-07-22T09:08:19;12.07;;;10.87;;
9844;SDS011;4961;50.782;6.080;2022-07-22T09:10:47;11.87;;;10.67;;
9844;SDS011;4961;50.782;6.080;2022-07-22T09:13:16;12.17;;;10.87;;
9844;SDS011;4961;50.782;6.080;2022-07-22T09:15:46;12.17;;;10.97;;
9844;SDS011;4961;50.782;6.080;2022-07-22T09:18:16;12.23;;;11.10;;
9844;SDS011;4961;50.782;6.080;2022-07-22T09:20:45;10.80;;;9.90;;
9844;SDS011;4961;50.782;6.080;2022-07-22T09:23:15;12.53;;;11.33;;
9844;SDS011;4961;50.782;6.080;2022-07-22T09:25:47;11.20;;;10.07;;
9844;SDS011;4961;50.782;6.080;2022-07-22T09:28:16;12.03;;;10.93;;
9844;SDS011;4961;50.782;6.080;2022-07-22T09:30:49;10.83;;;9.73;;
9844;SDS011;4961;50.782;6.080;2022-07-22T09:33:21;12.63;;;10.30;;
9844;SDS011;4961;50.782;6.080;2022-07-22T09:35:50;11.60;;;10.53;;
9844;SDS011;4961;50.782;6.080;2022-07-22T09:38:28;12.10;;;10.90;;
9844;SDS011;4961;50.782;6.080;2022-07-22T09:40:58;12.80;;;10.17;;
9844;SDS011;4961;50.782;6.080;2022-07-22T09:43:26;11.63;;;10.57;;
9844;SDS011;4961;50.782;6.080;2022-07-22T09:46:00;11.27;;;10.17;;
9844;SDS011;4961;50.782;6.080;2022-07-22T09:48:30;10.50;;;9.43;;
9844;SDS011;4961;50.782;6.080;2022-07-22T09:50:59;10.40;;;9.40;;
9844;SDS011;4961;50.782;6.080;2022-07-22T09:53:28;11.57;;;10.37;;
9844;SDS011;4961;50.782;6.080;2022-07-22T09:55:58;10.00;;;9.00;;
9844;SDS011;4961;50.782;6.080;2022-07-22T09:58:28;10.23;;;9.23;;
9844;SDS011;4961;50.782;6.080;2022-07-22T10:00:58;9.50;;;8.63;;
9844;SDS011;4961;50.782;6.080;2022-07-22T10:03:29;10.03;;;9.00;;
9844;SDS011;4961;50.782;6.080;2022-07-22T10:05:59;9.37;;;8.57;;
9844;SDS011;4961;50.782;6.080;2022-07-22T10:08:31;9.50;;;8.70;;
9844;SDS011;4961;50.782;6.080;2022-07-22T10:11:02;10.30;;;9.30;;
9844;SDS011;4961;50.782;6.080;2022-07-22T10:13:32;10.30;;;8.60;;
9844;SDS011;4961;50.782;6.080;2022-07-22T10:16:04;13.50;;;8.70;;
9844;SDS011;4961;50.782;6.080;2022-07-22T10:18:35;9.60;;;8.70;;
9844;SDS011;4961;50.782;6.080;2022-07-22T10:21:04;11.13;;;8.47;;
9844;SDS011;4961;50.782;6.080;2022-07-22T10:23:35;9.50;;;8.67;;
9844;SDS011;4961;50.782;6.080;2022-07-22T10:26:04;7.87;;;7.27;;
9844;SDS011;4961;50.782;6.080;2022-07-22T10:28:33;14.03;;;11.80;;
9844;SDS011;4961;50.782;6.080;2022-07-22T10:31:17;10.37;;;9.03;;
9844;SDS011;4961;50.782;6.080;2022-07-22T10:33:49;9.40;;;8.07;;
9844;SDS011;4961;50.782;6.080;2022-07-22T10:36:32;8.80;;;8.00;;
9844;SDS011;4961;50.782;6.080;2022-07-22T10:39:04;9.70;;;8.53;;
9844;SDS011;4961;50.782;6.080;2022-07-22T10:41:35;9.77;;;8.73;;
9844;SDS011;4961;50.782;6.080;2022-07-22T10:44:04;9.13;;;8.07;;
9844;SDS011;4961;50.782;6.080;2022-07-22T10:46:50;9.10;;;7.23;;
9844;SDS011;4961;50.782;6.080;2022-07-22T10:49:21;8.30;;;7.40;;
9844;SDS011;4961;50.782;6.080;2022-07-22T10:52:10;8.00;;;7.30;;
9844;SDS011;4961;50.782;6.080;2022-07-22T10:57:51;8.13;;;7.33;;
9844;SDS011;4961;50.782;6.080;2022-07-22T11:00:19;9.53;;;7.57;;
9844;SDS011;4961;50.782;6.080;2022-07-22T11:02:48;8.13;;;7.30;;
9844;SDS011;4961;50.782;6.080;2022-07-22T11:05:23;9.87;;;7.10;;
9844;SDS011;4961;50.782;6.080;2022-07-22T11:07:53;9.30;;;7.43;;
9844;SDS011;4961;50.782;6.080;2022-07-22T11:10:22;7.60;;;6.80;;
9844;SDS011;4961;50.782;6.080;2022-07-22T11:12:50;7.17;;;6.53;;
9844;SDS011;4961;50.782;6.080;2022-07-22T11:15:19;8.90;;;6.97;;
9844;SDS011;4961;50.782;6.080;2022-07-22T11:17:55;6.57;;;5.97;;
9844;SDS011;4961;50.782;6.080;2022-07-22T11:20:24;8.27;;;7.33;;
9844;SDS011;4961;50.782;6.080;2022-07-22T11:22:56;6.90;;;6.37;;
9844;SDS011;4961;50.782;6.080;2022-07-22T11:25:37;8.60;;;7.13;;
9844;SDS011;4961;50.782;6.080;2022-07-22T11:28:10;10.20;;;6.70;;
9844;SDS011;4961;50.782;6.080;2022-07-22T11:30:39;7.87;;;7.13;;
9844;SDS011;4961;50.782;6.080;2022-07-22T11:33:07;6.57;;;5.87;;
9844;SDS011;4961;50.782;6.080;2022-07-22T11:35:35;8.67;;;6.70;;
9844;SDS011;4961;50.782;6.080;2022-07-22T11:38:04;7.50;;;6.53;;
9844;SDS011;4961;50.782;6.080;2022-07-22T11:40:36;6.23;;;5.70;;
9844;SDS011;4961;50.782;6.080;2022-07-22T11:43:05;10.90;;;6.63;;
9844;SDS011;4961;50.782;6.080;2022-07-22T11:45:33;7.10;;;6.50;;
9844;SDS011;4961;50.782;6.080;2022-07-22T11:48:07;8.97;;;6.83;;
9844;SDS011;4961;50.782;6.080;2022-07-22T11:50:36;7.87;;;6.70;;
9844;SDS011;4961;50.782;6.080;2022-07-22T11:53:04;9.30;;;7.43;;
9844;SDS011;4961;50.782;6.080;2022-07-22T11:55:33;8.03;;;7.33;;
9844;SDS011;4961;50.782;6.080;2022-07-22T11:58:03;10.07;;;7.43;;
9844;SDS011;4961;50.782;6.080;2022-07-22T12:00:32;7.43;;;6.43;;
9844;SDS011;4961;50.782;6.080;2022-07-22T12:03:00;7.07;;;6.47;;
9844;SDS011;4961;50.782;6.080;2022-07-22T12:05:29;6.47;;;5.87;;
9844;SDS011;4961;50.782;6.080;2022-07-22T12:07:58;7.97;;;6.40;;
9844;SDS011;4961;50.782;6.080;2022-07-22T12:10:28;7.37;;;6.60;;
9844;SDS011;4961;50.782;6.080;2022-07-22T12:12:56;6.67;;;6.03;;
9844;SDS011;4961;50.782;6.080;2022-07-22T12:15:26;6.97;;;6.03;;
9844;SDS011;4961;50.782;6.080;2022-07-22T12:18:18;11.47;;;7.30;;
9844;SDS011;4961;50.782;6.080;2022-07-22T12:20:48;6.93;;;6.33;;
9844;SDS011;4961;50.782;6.080;2022-07-22T12:23:19;8.97;;;6.33;;
9844;SDS011;4961;50.782;6.080;2022-07-22T12:25:49;6.80;;;5.93;;
9844;SDS011;4961;50.782;6.080;2022-07-22T12:28:18;5.67;;;5.20;;
9844;SDS011;4961;50.782;6.080;2022-07-22T12:30:48;6.03;;;5.20;;
9844;SDS011;4961;50.782;6.080;2022-07-22T12:33:19;5.63;;;5.13;;
9844;SDS011;4961;50.782;6.080;2022-07-22T12:35:57;7.20;;;5.47;;
9844;SDS011;4961;50.782;6.080;2022-07-22T12:38:27;5.77;;;5.27;;
9844;SDS011;4961;50.782;6.080;2022-07-22T12:43:51;5.27;;;4.73;;
9844;SDS011;4961;50.782;6.080;2022-07-22T12:46:22;6.97;;;6.27;;
9844;SDS011;4961;50.782;6.080;2022-07-22T12:48:51;6.23;;;5.50;;
9844;SDS011;4961;50.782;6.080;2022-07-22T12:51:21;5.33;;;4.43;;
9844;SDS011;4961;50.782;6.080;2022-07-22T12:53:50;5.50;;;5.10;;
9844;SDS011;4961;50.782;6.080;2022-07-22T12:56:19;6.10;;;5.50;;
9844;SDS011;4961;50.782;6.080;2022-07-22T12:58:48;5.70;;;4.80;;
9844;SDS011;4961;50.782;6.080;2022-07-22T13:01:17;6.17;;;4.93;;
9844;SDS011;4961;50.782;6.080;2022-07-22T13:03:47;5.80;;;5.07;;
9844;SDS011;4961;50.782;6.080;2022-07-22T13:06:15;4.57;;;3.93;;
9844;SDS011;4961;50.782;6.080;2022-07-22T13:08:44;5.30;;;4.73;;
9844;SDS011;4961;50.782;6.080;2022-07-22T13:11:12;5.17;;;4.87;;
9844;SDS011;4961;50.782;6.080;2022-07-22T13:13:41;5.90;;;4.13;;
9844;SDS011;4961;50.782;6.080;2022-07-22T13:16:12;4.77;;;4.37;;
9844;SDS011;4961;50.782;6.080;2022-07-22T13:18:41;5.23;;;4.60;;
9844;SDS011;4961;50.782;6.080;2022-07-22T13:21:11;7.70;;;5.87;;
9844;SDS011;4961;50.782;6.080;2022-07-22T13:23:39;5.20;;;4.53;;
9844;SDS011;4961;50.782;6.080;2022-07-22T13:26:07;6.60;;;4.87;;
9844;SDS011;4961;50.782;6.080;2022-07-22T13:28:36;5.07;;;4.67;;
9844;SDS011;4961;50.782;6.080;2022-07-22T13:31:04;5.27;;;4.77;;
9844;SDS011;4961;50.782;6.080;2022-07-22T13:33:32;5.27;;;4.77;;
9844;SDS011;4961;50.782;6.080;2022-07-22T13:36:01;5.23;;;4.80;;
9844;SDS011;4961;50.782;6.080;2022-07-22T13:38:31;6.53;;;5.43;;
9844;SDS011;4961;50.782;6.080;2022-07-22T13:41:00;5.40;;;4.90;;
9844;SDS011;4961;50.782;6.080;2022-07-22T13:43:28;5.93;;;5.27;;
9844;SDS011;4961;50.782;6.080;2022-07-22T13:45:56;6.00;;;5.10;;
9844;SDS011;4961;50.782;6.080;2022-07-22T13:48:25;6.27;;;5.67;;
9844;SDS011;4961;50.782;6.080;2022-07-22T13:50:53;6.40;;;5.87;;
9844;SDS011;4961;50.782;6.080;2022-07-22T13:53:22;6.07;;;5.17;;
9844;SDS011;4961;50.782;6.080;2022-07-22T13:55:51;5.80;;;5.23;;
9844;SDS011;4961;50.782;6.080;2022-07-22T13:58:20;6.63;;;5.63;;
9844;SDS011;4961;50.782;6.080;2022-07-22T14:00:48;5.50;;;5.10;;
9844;SDS011;4961;50.782;6.080;2022-07-22T14:03:16;6.77;;;6.17;;
9844;SDS011;4961;50.782;6.080;2022-07-22T14:05:45;6.10;;;5.37;;
9844;SDS011;4961;50.782;6.080;2022-07-22T14:08:13;6.60;;;5.90;;
9844;SDS011;4961;50.782;6.080;2022-07-22T14:10:41;6.13;;;5.60;;
9844;SDS011;4961;50.782;6.080;2022-07-22T14:13:11;6.40;;;5.53;;
9844;SDS011;4961;50.782;6.080;2022-07-22T14:15:39;5.50;;;4.90;;
9844;SDS011;4961;50.782;6.080;2022-07-22T14:18:08;5.47;;;4.73;;
9844;SDS011;4961;50.782;6.080;2022-07-22T14:20:36;6.53;;;5.23;;
9844;SDS011;4961;50.782;6.080;2022-07-22T14:23:07;5.70;;;5.10;;
9844;SDS011;4961;50.782;6.080;2022-07-22T14:25:36;6.00;;;5.33;;
9844;SDS011;4961;50.782;6.080;2022-07-22T14:28:05;9.07;;;6.00;;
9844;SDS011;4961;50.782;6.080;2022-07-22T14:30:55;5.73;;;5.17;;
9844;SDS011;4961;50.782;6.080;2022-07-22T14:33:24;5.90;;;5.30;;
9844;SDS011;4961;50.782;6.080;2022-07-22T14:35:52;6.60;;;5.07;;
9844;SDS011;4961;50.782;6.080;2022-07-22T14:38:20;5.70;;;5.07;;
9844;SDS011;4961;50.782;6.080;2022-07-22T14:40:49;6.10;;;5.60;;
9844;SDS011;4961;50.782;6.080;2022-07-22T14:43:17;6.50;;;5.90;;
9844;SDS011;4961;50.782;6.080;2022-07-22T14:46:07;6.17;;;5.53;;
9844;SDS011;4961;50.782;6.080;2022-07-22T14:48:36;6.07;;;5.23;;
9844;SDS011;4961;50.782;6.080;2022-07-22T14:51:05;6.73;;;6.10;;
9844;SDS011;4961;50.782;6.080;2022-07-22T14:53:33;6.10;;;5.50;;
9844;SDS011;4961;50.782;6.080;2022-07-22T14:56:02;7.40;;;5.70;;
9844;SDS011;4961;50.782;6.080;2022-07-22T14:58:30;6.30;;;5.70;;
9844;SDS011;4961;50.782;6.080;2022-07-22T15:00:58;5.63;;;5.10;;
9844;SDS011;4961;50.782;6.080;2022-07-22T15:03:28;7.73;;;5.77;;
9844;SDS011;4961;50.782;6.080;2022-07-22T15:05:57;6.27;;;5.10;;
9844;SDS011;4961;50.782;6.080;2022-07-22T15:08:25;6.03;;;5.50;;
9844;SDS011;4961;50.782;6.080;2022-07-22T15:10:53;7.97;;;6.60;;
9844;SDS011;4961;50.782;6.080;2022-07-22T15:13:21;6.70;;;6.10;;
9844;SDS011;4961;50.782;6.080;2022-07-22T15:15:52;6.93;;;6.23;;
9844;SDS011;4961;50.782;6.080;2022-07-22T15:18:21;6.47;;;5.73;;
9844;SDS011;4961;50.782;6.080;2022-07-22T15:20:51;5.93;;;5.33;;
9844;SDS011;4961;50.782;6.080;2022-07-22T15:23:22;5.40;;;5.00;;
9844;SDS011;4961;50.782;6.080;2022-07-22T15:25:52;7.60;;;6.10;;
9844;SDS011;4961;50.782;6.080;2022-07-22T15:28:21;5.97;;;5.47;;
9844;SDS011;4961;50.782;6.080;2022-07-22T15:31:04;5.67;;;5.17;;